createdAt,value
2023-04-17T00:02:38.684Z,6.46
2023-04-17T00:07:41.581Z,6.42
2023-04-17T00:12:44.333Z,6.38
2023-04-17T00:17:47.135Z,6.37
2023-04-17T00:22:50.395Z,6.36
2023-04-17T00:27:53.198Z,6.35
2023-04-17T00:32:56.259Z,6.33
2023-04-17T00:37:59.116Z,6.37
2023-04-17T00:43:03.529Z,6.40
2023-04-17T00:48:08.631Z,6.38
2023-04-17T00:53:12.426Z,6.33
2023-04-17T00:58:15.644Z,6.30
2023-04-17T01:03:18.538Z,6.27
2023-04-17T01:08:22.448Z,6.21
2023-04-17T01:13:26.294Z,6.17
2023-04-17T01:18:28.995Z,6.14
2023-04-17T01:23:42.790Z,6.10
2023-04-17T01:28:54.326Z,6.09
2023-04-17T01:33:57.046Z,6.12
2023-04-17T01:38:59.764Z,6.11
2023-04-17T01:44:02.508Z,6.10
2023-04-17T01:49:05.477Z,6.12
2023-04-17T01:54:08.497Z,6.14
2023-04-17T01:59:11.582Z,6.13
2023-04-17T02:04:14.782Z,6.10
2023-04-17T02:09:17.893Z,6.11
2023-04-17T02:14:21.119Z,6.10
2023-04-17T02:19:23.755Z,6.13
2023-04-17T02:24:26.446Z,6.11
2023-04-17T02:29:29.203Z,6.12
2023-04-17T02:34:32.116Z,6.14
2023-04-17T02:39:35.619Z,6.15
2023-04-17T02:44:39.977Z,6.13
2023-04-17T02:49:42.649Z,6.15
2023-04-17T02:54:45.649Z,6.20
2023-04-17T02:59:48.327Z,6.22
2023-04-17T03:04:51.864Z,6.21
2023-04-17T03:09:57.681Z,6.16
2023-04-17T03:15:00.868Z,6.14
2023-04-17T03:20:04.290Z,6.12
2023-04-17T03:25:07.116Z,6.08
2023-04-17T03:30:10.280Z,6.06
2023-04-17T03:35:12.988Z,6.06
2023-04-17T03:40:15.774Z,6.06
2023-04-17T03:45:18.488Z,6.01
2023-04-17T03:50:21.290Z,5.99
2023-04-17T03:55:24.090Z,5.98
2023-04-17T04:00:27.714Z,5.96
2023-04-17T04:05:30.513Z,5.95
2023-04-17T04:10:33.266Z,5.97
2023-04-17T04:15:36.078Z,5.97
2023-04-17T04:20:38.870Z,6.00
2023-04-17T04:25:41.904Z,6.03
2023-04-17T04:30:50.932Z,6.08
2023-04-17T04:35:56.231Z,6.16
2023-04-17T04:41:01.765Z,6.23
2023-04-17T04:46:04.664Z,6.27
2023-04-17T04:51:07.400Z,6.32
2023-04-17T04:56:10.573Z,6.41
2023-04-17T05:01:13.333Z,6.45
2023-04-17T05:06:16.298Z,6.50
2023-04-17T05:11:19.199Z,6.60
2023-04-17T05:16:22.369Z,6.68
2023-04-17T05:21:25.437Z,6.75
2023-04-17T05:26:28.133Z,6.84
2023-04-17T05:31:31.277Z,6.97
2023-04-17T05:36:34.457Z,7.07
2023-04-17T05:41:37.041Z,7.12
2023-04-17T05:46:39.946Z,7.18
2023-04-17T05:51:42.756Z,7.28
2023-04-17T05:56:46.550Z,7.38
2023-04-17T06:01:52.516Z,7.44
2023-04-17T06:07:03.506Z,7.50
2023-04-17T06:12:07.541Z,7.67
2023-04-17T06:17:12.390Z,7.92
2023-04-17T06:22:15.460Z,8.25
2023-04-17T06:27:18.138Z,8.56
2023-04-17T06:32:30.472Z,8.87
2023-04-17T06:37:36.220Z,9.15
2023-04-17T06:42:38.988Z,9.25
2023-04-17T06:47:43.024Z,9.29
2023-04-17T06:52:45.757Z,9.34
2023-04-17T06:57:48.656Z,9.39
2023-04-17T07:02:51.661Z,9.51
2023-04-17T07:07:54.870Z,9.61
2023-04-17T07:12:57.543Z,9.77
2023-04-17T07:18:00.565Z,9.81
2023-04-17T07:23:03.348Z,9.60
2023-04-17T07:28:06.987Z,9.34
2023-04-17T07:33:10.320Z,9.25
2023-04-17T07:38:13.109Z,9.36
2023-04-17T07:43:16.819Z,9.57
2023-04-17T07:48:22.545Z,9.82
2023-04-17T07:53:34.765Z,10.18
2023-04-17T07:58:44.709Z,10.34
2023-04-17T08:03:53.261Z,10.51
2023-04-17T08:09:00.877Z,10.69
2023-04-17T08:14:09.614Z,10.94
2023-04-17T08:19:17.927Z,11.29
2023-04-17T08:24:37.855Z,11.56
2023-04-17T08:29:45.600Z,11.69
2023-04-17T08:34:50.756Z,11.89
2023-04-17T08:39:55.874Z,11.96
2023-04-17T08:45:13.178Z,11.73
2023-04-17T08:50:24.602Z,11.66
2023-04-17T08:55:33.823Z,11.65
2023-04-17T09:00:43.793Z,11.67
2023-04-17T09:05:49.158Z,11.82
2023-04-17T09:10:58.748Z,12.00
2023-04-17T09:16:14.017Z,12.17
2023-04-17T09:21:23.455Z,12.16
2023-04-17T09:26:37.473Z,12.11
2023-04-17T09:31:43.129Z,11.93
2023-04-17T09:36:47.140Z,11.67
2023-04-17T09:42:02.313Z,11.42
2023-04-17T09:47:07.921Z,11.34
2023-04-17T09:52:12.289Z,11.29
2023-04-17T09:57:16.872Z,11.38
2023-04-17T10:02:22.591Z,11.67
2023-04-17T10:07:26.080Z,11.87
2023-04-17T10:12:31.290Z,11.93
2023-04-17T10:17:38.990Z,12.07
2023-04-17T10:22:44.147Z,11.90
2023-04-17T10:27:55.575Z,11.75
2023-04-17T10:33:25.015Z,11.60
2023-04-17T10:38:33.591Z,11.33
2023-04-17T10:43:44.280Z,11.17
2023-04-17T10:48:51.599Z,10.96
2023-04-17T10:53:58.849Z,10.89
2023-04-17T10:59:04.705Z,10.83
2023-04-17T11:04:08.900Z,10.84
2023-04-17T11:09:12.129Z,10.86
2023-04-17T11:14:21.509Z,10.83
2023-04-17T11:19:27.893Z,10.75
2023-04-17T11:24:32.908Z,10.57
2023-04-17T11:29:35.909Z,10.37
2023-04-17T11:34:42.585Z,10.22
2023-04-17T11:39:47.764Z,10.04
2023-04-17T11:44:51.162Z,9.92
2023-04-17T11:49:54.308Z,9.83
2023-04-17T11:54:58.506Z,9.68
2023-04-17T12:00:12.231Z,9.58
2023-04-17T12:05:18.362Z,9.57
2023-04-17T12:10:21.502Z,9.67
2023-04-17T12:15:24.501Z,9.78
2023-04-17T12:20:27.267Z,9.91
2023-04-17T12:25:30.799Z,10.01
2023-04-17T12:30:36.101Z,10.09
2023-04-17T12:35:38.932Z,10.18
2023-04-17T12:40:43.415Z,10.27
2023-04-17T12:45:51.091Z,10.35
2023-04-17T12:50:54.900Z,10.37
2023-04-17T12:55:57.734Z,10.24
2023-04-17T13:01:00.957Z,10.09
2023-04-17T13:06:04.053Z,10.03
2023-04-17T13:11:06.913Z,10.06
2023-04-17T13:16:10.021Z,10.16
2023-04-17T13:21:12.773Z,10.23
2023-04-17T13:26:15.655Z,10.20
2023-04-17T13:31:18.380Z,10.24
2023-04-17T13:36:21.559Z,10.29
2023-04-17T13:41:24.579Z,10.29
2023-04-17T13:46:27.357Z,10.36
2023-04-17T13:51:31.765Z,10.54
2023-04-17T13:56:34.681Z,10.74
2023-04-17T14:01:37.747Z,11.02
2023-04-17T14:06:40.521Z,11.18
2023-04-17T14:11:43.354Z,11.16
2023-04-17T14:16:48.471Z,11.11
2023-04-17T14:21:51.156Z,11.14
2023-04-17T14:26:53.970Z,11.08
2023-04-17T14:31:56.702Z,11.01
2023-04-17T14:36:59.526Z,10.88
2023-04-17T14:42:02.640Z,10.69
2023-04-17T14:47:05.738Z,10.52
2023-04-17T14:52:08.598Z,10.42
2023-04-17T14:57:11.850Z,10.36
2023-04-17T15:02:14.799Z,10.30
2023-04-17T15:07:17.507Z,10.15
2023-04-17T15:12:20.311Z,10.03
2023-04-17T15:17:23.042Z,9.99
2023-04-17T15:22:27.029Z,9.90
2023-04-17T15:27:29.734Z,9.83
2023-04-17T15:32:32.564Z,9.83
2023-04-17T15:37:37.802Z,9.78
2023-04-17T15:42:40.485Z,9.69
2023-04-17T15:47:43.244Z,9.58
2023-04-17T15:52:46.102Z,9.50
2023-04-17T15:57:49.122Z,9.43
2023-04-17T16:02:52.243Z,9.40
2023-04-17T16:07:55.474Z,9.40
2023-04-17T16:12:58.150Z,9.40
2023-04-17T16:18:01.776Z,9.37
2023-04-17T16:23:04.959Z,9.33
2023-04-17T16:28:07.620Z,9.29
2023-04-17T16:33:10.451Z,9.28
2023-04-17T16:38:13.360Z,9.27
2023-04-17T16:43:16.084Z,9.28
2023-04-17T16:48:18.794Z,9.31
2023-04-17T16:53:21.765Z,9.40
2023-04-17T16:58:24.767Z,9.51
2023-04-17T17:03:27.818Z,9.53
2023-04-17T17:08:30.681Z,9.91
2023-04-17T17:13:33.461Z,10.24
2023-04-17T17:18:36.271Z,10.04
2023-04-17T17:23:39.294Z,9.71
2023-04-17T17:28:42.712Z,9.42
2023-04-17T17:33:49.943Z,9.16
2023-04-17T17:38:56.038Z,8.91
2023-04-17T17:43:59.089Z,8.72
2023-04-17T17:49:01.777Z,8.57
2023-04-17T17:54:04.648Z,8.42
2023-04-17T17:59:07.912Z,8.28
2023-04-17T18:04:10.722Z,8.10
2023-04-17T18:09:13.811Z,7.91
2023-04-17T18:14:16.613Z,7.71
2023-04-17T18:19:19.251Z,7.50
2023-04-17T18:24:22.118Z,7.34
2023-04-17T18:29:24.927Z,7.18
2023-04-17T18:34:27.715Z,7.02
2023-04-17T18:39:30.933Z,6.91
2023-04-17T18:44:33.616Z,6.79
2023-04-17T18:49:36.332Z,6.68
2023-04-17T18:54:39.222Z,6.57
2023-04-17T18:59:43.238Z,6.51
2023-04-17T19:04:46.391Z,6.46
2023-04-17T19:09:49.271Z,6.40
2023-04-17T19:14:52.065Z,6.38
2023-04-17T19:19:54.767Z,6.42
2023-04-17T19:24:57.583Z,6.48
2023-04-17T19:30:00.392Z,6.55
2023-04-17T19:35:03.156Z,6.60
2023-04-17T19:40:21.558Z,6.64
2023-04-17T19:45:27.964Z,6.72
2023-04-17T19:50:30.768Z,6.78
2023-04-17T19:55:34.030Z,6.84
2023-04-17T20:00:36.931Z,6.89
2023-04-17T20:05:39.644Z,6.91
2023-04-17T20:10:42.538Z,6.92
2023-04-17T20:15:45.481Z,6.91
2023-04-17T20:20:48.365Z,6.90
2023-04-17T20:25:51.116Z,6.87
2023-04-17T20:30:53.924Z,6.81
2023-04-17T20:35:56.716Z,6.74
2023-04-17T20:40:59.392Z,6.69
2023-04-17T20:46:02.719Z,6.66
2023-04-17T20:51:06.031Z,6.65
2023-04-17T20:56:08.720Z,6.66
2023-04-17T21:01:11.471Z,6.65
2023-04-17T21:06:14.176Z,6.68
2023-04-17T21:11:17.176Z,6.70
2023-04-17T21:16:20.026Z,6.74
2023-04-17T21:21:22.984Z,6.76
2023-04-17T21:26:25.883Z,6.80
2023-04-17T21:31:28.711Z,6.82
2023-04-17T21:36:32.039Z,6.82
2023-04-17T21:41:34.654Z,6.83
2023-04-17T21:46:38.520Z,6.80
2023-04-17T21:51:41.647Z,6.75
2023-04-17T21:56:44.267Z,6.68
2023-04-17T22:01:47.034Z,6.64
2023-04-17T22:06:51.808Z,6.63
2023-04-17T22:11:54.554Z,6.64
2023-04-17T22:16:57.302Z,6.67
2023-04-17T22:22:56.810Z,6.69
2023-04-17T22:28:56.415Z,6.73
2023-04-17T22:34:56.076Z,6.73
2023-04-17T22:40:55.303Z,6.69
2023-04-17T22:46:54.736Z,6.65
2023-04-17T22:52:54.161Z,6.60
2023-04-17T22:58:53.391Z,6.57
2023-04-17T23:04:53.158Z,6.51
2023-04-17T23:10:18.526Z,6.39
2023-04-17T23:15:21.654Z,6.26
2023-04-17T23:20:25.016Z,6.16
2023-04-17T23:25:27.771Z,6.06
2023-04-17T23:30:30.679Z,5.93
2023-04-17T23:35:33.412Z,5.85
2023-04-17T23:40:36.491Z,5.78
2023-04-17T23:45:39.580Z,5.71
2023-04-17T23:50:42.498Z,5.63
2023-04-17T23:55:45.509Z,5.56
